Time;durP1;ratioP1;P1;durP2;ratioP2;P2;SDS_P1;SDS_P2;PMS_P1;PMS_P2;Temp;Humidity;BMP_temperature;BMP_pressure;BME280_temperature;BME280_humidity;BME280_pressure;Samples;Min_cycle;Max_cycle;Signal;HPM_P1;HPM_P2
2022/08/17 00:00:41;;;;;;;16.65;15.00;;;20.20;99.90;;;;;;4960871;28;20035;-46
2022/08/17 00:03:22;;;;;;;16.42;15.05;;;20.20;99.90;;;;;;4960847;28;20028;-49
2022/08/17 00:05:56;;;;;;;15.77;14.23;;;20.20;99.90;;;;;;4960305;28;20027;-49
2022/08/17 00:08:25;;;;;;;16.27;14.77;;;20.20;99.90;;;;;;4952204;28;20061;-48
2022/08/17 00:10:52;;;;;;;18.42;16.63;;;20.10;99.90;;;;;;4959877;28;20054;-47
2022/08/17 00:13:31;;;;;;;14.20;12.90;;;20.10;99.90;;;;;;4963056;28;20487;-46
2022/08/17 00:16:04;;;;;;;16.27;14.77;;;20.10;99.90;;;;;;4964278;28;20085;-48
2022/08/17 00:18:31;;;;;;;15.63;14.20;;;20.00;99.90;;;;;;4965543;28;20109;-48
2022/08/17 00:20:58;;;;;;;12.95;11.68;;;19.90;99.90;;;;;;4964755;28;20152;-46
2022/08/17 00:23:25;;;;;;;15.55;14.15;;;19.90;99.90;;;;;;4958805;28;20026;-45
2022/08/17 00:25:51;;;;;;;16.67;14.88;;;19.90;99.90;;;;;;4965360;28;20043;-46
2022/08/17 00:28:17;;;;;;;19.20;16.63;;;19.90;99.90;;;;;;4964751;28;20109;-45
2022/08/17 00:30:45;;;;;;;19.55;17.45;;;19.80;99.90;;;;;;4957298;28;20171;-46
2022/08/17 00:33:15;;;;;;;18.65;16.73;;;19.80;99.90;;;;;;4967134;28;20030;-45
2022/08/17 00:35:44;;;;;;;18.25;16.50;;;19.80;99.90;;;;;;4960634;28;20114;-46
2022/08/17 00:38:11;;;;;;;18.20;16.38;;;19.80;99.90;;;;;;4969296;28;20551;-45
2022/08/17 00:40:52;;;;;;;17.23;15.65;;;19.70;99.90;;;;;;4961726;28;20609;-47
2022/08/17 00:43:21;;;;;;;18.08;16.35;;;19.70;99.90;;;;;;4950495;28;20526;-46
2022/08/17 00:45:47;;;;;;;16.42;14.20;;;19.70;99.90;;;;;;4963073;28;20039;-49
2022/08/17 00:48:14;;;;;;;16.02;14.63;;;19.70;99.90;;;;;;4964954;28;20023;-46
2022/08/17 00:51:08;;;;;;;17.63;15.98;;;19.60;99.90;;;;;;4964874;28;20106;-48
2022/08/17 00:53:37;;;;;;;15.00;13.57;;;19.60;99.90;;;;;;4952407;28;20031;-47
2022/08/17 00:56:06;;;;;;;17.02;15.43;;;19.50;99.90;;;;;;4964402;28;20054;-46
2022/08/17 00:58:33;;;;;;;16.75;15.23;;;19.50;99.90;;;;;;4959631;28;20624;-47
2022/08/17 01:01:00;;;;;;;15.50;14.00;;;19.40;99.90;;;;;;4960391;28;20047;-46
2022/08/17 01:03:28;;;;;;;17.17;15.38;;;19.40;99.90;;;;;;4962530;28;20026;-46
2022/08/17 01:05:57;;;;;;;17.63;16.08;;;19.30;99.90;;;;;;4962877;28;20602;-51
2022/08/17 01:08:25;;;;;;;17.13;15.43;;;19.30;99.90;;;;;;4964812;28;20035;-49
2022/08/17 01:10:54;;;;;;;17.52;15.95;;;19.20;99.90;;;;;;4964062;28;20027;-49
2022/08/17 01:13:21;;;;;;;17.00;15.43;;;19.10;99.90;;;;;;4964458;28;20019;-48
2022/08/17 01:16:04;;;;;;;16.42;14.95;;;19.10;99.90;;;;;;4964490;28;20076;-48
2022/08/17 01:18:31;;;;;;;17.45;15.68;;;19.10;99.90;;;;;;4958493;28;20039;-50
2022/08/17 01:21:03;;;;;;;16.73;15.00;;;19.00;99.90;;;;;;4963435;28;20018;-51
2022/08/17 01:23:29;;;;;;;16.42;14.93;;;19.00;99.90;;;;;;4939638;28;20039;-50
2022/08/17 01:26:00;;;;;;;16.80;15.10;;;19.00;99.90;;;;;;4950995;28;20030;-45
2022/08/17 01:28:29;;;;;;;17.48;15.68;;;18.90;99.90;;;;;;4959966;28;20430;-47
2022/08/17 01:30:56;;;;;;;17.05;15.32;;;18.90;99.90;;;;;;4955127;28;20142;-45
2022/08/17 01:33:22;;;;;;;15.40;14.05;;;18.80;99.90;;;;;;4962168;28;20034;-47
2022/08/17 01:35:47;;;;;;;16.45;14.85;;;18.80;99.90;;;;;;4961829;28;20026;-47
2022/08/17 01:38:13;;;;;;;15.73;14.43;;;18.80;99.90;;;;;;4962619;28;20030;-47
2022/08/17 01:40:45;;;;;;;16.33;14.75;;;18.80;99.90;;;;;;4956290;28;20509;-48
2022/08/17 01:43:21;;;;;;;17.95;16.10;;;18.80;99.90;;;;;;4963214;28;20048;-46
2022/08/17 01:45:51;;;;;;;15.40;13.80;;;18.70;99.90;;;;;;4963399;28;20386;-48
2022/08/17 01:48:18;;;;;;;17.52;15.93;;;18.70;99.90;;;;;;4953306;28;20390;-47
2022/08/17 01:50:45;;;;;;;17.38;15.68;;;18.70;99.90;;;;;;4963991;28;20029;-45
2022/08/17 01:53:28;;;;;;;16.70;15.10;;;18.60;99.90;;;;;;4955091;28;20110;-46
2022/08/17 01:56:09;;;;;;;17.50;15.80;;;18.60;99.90;;;;;;4961307;28;20019;-45
2022/08/17 01:58:35;;;;;;;15.48;14.05;;;18.60;99.90;;;;;;4954495;28;20031;-48
2022/08/17 02:01:01;;;;;;;18.00;16.23;;;18.60;99.90;;;;;;4965047;28;20502;-47
2022/08/17 02:03:28;;;;;;;17.85;16.15;;;18.50;99.90;;;;;;4963509;28;20054;-48
2022/08/17 02:05:54;;;;;;;18.40;16.10;;;18.50;99.90;;;;;;4957658;28;20042;-49
2022/08/17 02:08:21;;;;;;;14.77;13.40;;;18.40;99.90;;;;;;4961345;28;20026;-47
2022/08/17 02:10:48;;;;;;;17.90;16.30;;;18.40;99.90;;;;;;4957096;28;20035;-46
2022/08/17 02:13:13;;;;;;;17.88;16.27;;;18.40;99.90;;;;;;4959777;28;20047;-47
2022/08/17 02:15:40;;;;;;;18.95;17.00;;;18.40;99.90;;;;;;4959239;28;20094;-49
2022/08/17 02:18:07;;;;;;;17.63;15.45;;;18.30;99.90;;;;;;4961142;28;20035;-48
2022/08/17 02:20:37;;;;;;;18.70;16.80;;;18.30;99.90;;;;;;4965306;28;20048;-46
2022/08/17 02:23:07;;;;;;;16.85;15.23;;;18.30;99.90;;;;;;4956618;28;20027;-46
2022/08/17 02:25:34;;;;;;;17.48;15.90;;;18.30;99.90;;;;;;4963478;28;20143;-46
2022/08/17 02:27:59;;;;;;;19.67;17.67;;;18.30;99.90;;;;;;4961479;28;20086;-47
2022/08/17 02:30:25;;;;;;;18.27;16.67;;;18.30;99.90;;;;;;4963151;28;20062;-46
2022/08/17 02:32:52;;;;;;;17.05;15.50;;;18.30;99.90;;;;;;4962019;28;20042;-49
2022/08/17 02:35:18;;;;;;;19.85;18.00;;;18.30;99.90;;;;;;4961505;28;20023;-51
2022/08/17 02:37:44;;;;;;;18.40;16.52;;;18.30;99.90;;;;;;4961219;28;20098;-50
2022/08/17 02:40:10;;;;;;;17.65;16.00;;;18.30;99.90;;;;;;4958017;28;20044;-48
2022/08/17 02:42:38;;;;;;;17.10;15.48;;;18.20;99.90;;;;;;4963685;28;20379;-51
2022/08/17 02:45:07;;;;;;;17.85;16.05;;;18.20;99.90;;;;;;4966003;28;20019;-49
2022/08/17 02:47:32;;;;;;;17.02;15.40;;;18.20;99.90;;;;;;4963449;28;20035;-47
2022/08/17 02:49:58;;;;;;;19.38;17.38;;;18.20;99.90;;;;;;4962669;28;20191;-46
2022/08/17 02:52:30;;;;;;;17.48;15.77;;;18.20;99.90;;;;;;4963291;28;20641;-46
2022/08/17 02:54:56;;;;;;;19.45;17.40;;;18.20;99.90;;;;;;4960971;28;20023;-45
2022/08/17 02:57:22;;;;;;;19.02;17.15;;;18.20;99.90;;;;;;4962783;28;20393;-48
2022/08/17 02:59:47;;;;;;;17.00;15.32;;;18.20;99.90;;;;;;4961707;28;20066;-48
2022/08/17 03:02:13;;;;;;;19.52;17.70;;;18.10;99.90;;;;;;4962616;28;20026;-46
2022/08/17 03:04:38;;;;;;;17.42;15.80;;;18.10;99.90;;;;;;4962413;28;20038;-46
2022/08/17 03:07:04;;;;;;;18.50;16.65;;;18.10;99.90;;;;;;4962315;28;20118;-45
2022/08/17 03:09:30;;;;;;;19.42;17.58;;;18.10;99.90;;;;;;4962498;28;20087;-46
2022/08/17 03:12:11;;;;;;;17.90;16.08;;;18.10;99.90;;;;;;4960346;28;20042;-47
2022/08/17 03:14:41;;;;;;;19.55;17.48;;;18.10;99.90;;;;;;4959550;28;20156;-49
2022/08/17 03:17:08;;;;;;;18.58;16.65;;;18.10;99.90;;;;;;4960210;28;20023;-46
2022/08/17 03:19:34;;;;;;;19.48;17.60;;;18.10;99.90;;;;;;4963101;28;20419;-46
2022/08/17 03:22:00;;;;;;;21.17;18.90;;;18.10;99.90;;;;;;4960272;28;20125;-47
2022/08/17 03:24:25;;;;;;;22.30;20.20;;;18.10;99.90;;;;;;4962682;28;20411;-48
2022/08/17 03:26:51;;;;;;;20.35;18.38;;;18.10;99.90;;;;;;4962181;28;20088;-46
2022/08/17 03:29:18;;;;;;;20.38;18.67;;;18.10;99.90;;;;;;4961847;28;20035;-47
2022/08/17 03:31:47;;;;;;;23.52;21.25;;;18.00;99.90;;;;;;4962005;28;20015;-47
2022/08/17 03:34:16;;;;;;;24.27;21.67;;;18.00;99.90;;;;;;4958612;28;20019;-46
2022/08/17 03:36:42;;;;;;;20.75;18.75;;;18.00;99.90;;;;;;4963633;28;20498;-48
2022/08/17 03:39:08;;;;;;;23.10;20.85;;;18.00;99.90;;;;;;4959431;28;20074;-49
2022/08/17 03:41:33;;;;;;;21.05;19.05;;;17.90;99.90;;;;;;4962982;28;20023;-50
2022/08/17 03:43:59;;;;;;;20.58;18.63;;;17.90;99.90;;;;;;4960627;28;20027;-46
2022/08/17 03:57:24;;;;;;;27.02;24.17;;;18.00;99.90;;;;;;4954061;28;20654;-49
2022/08/17 03:59:51;;;;;;;26.80;24.15;;;18.00;99.90;;;;;;4964553;28;20154;-47
2022/08/17 04:02:29;;;;;;;29.42;26.40;;;17.90;99.90;;;;;;4964460;28;20399;-47
2022/08/17 04:04:55;;;;;;;24.38;21.88;;;17.90;99.90;;;;;;4963332;28;20027;-47
2022/08/17 04:07:23;;;;;;;27.48;24.60;;;17.90;99.90;;;;;;4964513;28;20049;-48
2022/08/17 04:09:49;;;;;;;28.38;25.48;;;17.90;99.90;;;;;;4962998;28;20177;-47
2022/08/17 04:12:17;;;;;;;29.75;26.58;;;17.90;99.90;;;;;;4965340;28;20497;-46
2022/08/17 04:14:42;;;;;;;29.40;26.20;;;17.90;99.90;;;;;;4960951;28;20181;-46
2022/08/17 04:17:08;;;;;;;27.20;24.02;;;17.90;99.90;;;;;;4962720;28;20106;-46
2022/08/17 04:19:34;;;;;;;31.90;28.60;;;17.90;99.90;;;;;;4965619;28;20497;-46
2022/08/17 04:22:00;;;;;;;32.42;28.98;;;17.90;99.90;;;;;;4962840;28;20078;-47
2022/08/17 04:24:26;;;;;;;30.15;26.67;;;17.90;99.90;;;;;;4960464;28;20031;-48
2022/08/17 04:26:52;;;;;;;32.13;28.70;;;17.90;99.90;;;;;;4966468;28;20045;-49
2022/08/17 04:29:18;;;;;;;30.80;27.67;;;17.90;99.90;;;;;;4965282;28;20023;-50
2022/08/17 04:31:44;;;;;;;32.50;29.15;;;17.90;99.90;;;;;;4965323;28;20102;-46
2022/08/17 04:34:11;;;;;;;33.50;29.70;;;17.90;99.90;;;;;;4962400;28;20073;-47
2022/08/17 04:36:37;;;;;;;38.13;32.53;;;17.90;99.90;;;;;;4966192;28;20019;-46
2022/08/17 04:39:03;;;;;;;36.50;31.30;;;17.90;99.90;;;;;;4963153;28;20027;-49
2022/08/17 04:44:13;;;;;;;30.55;27.45;;;17.90;99.90;;;;;;4962147;28;20508;-47
2022/08/17 04:46:39;;;;;;;33.08;29.58;;;18.00;99.90;;;;;;4967666;28;20030;-47
2022/08/17 04:49:09;;;;;;;33.03;29.73;;;18.00;99.90;;;;;;4962496;28;20039;-47
2022/08/17 04:51:38;;;;;;;33.80;29.90;;;18.00;99.90;;;;;;4956537;28;20511;-49
2022/08/17 04:54:07;;;;;;;33.25;29.05;;;18.00;99.90;;;;;;4967380;28;20068;-48
2022/08/17 04:56:33;;;;;;;32.63;29.23;;;18.10;99.90;;;;;;4961469;28;20019;-48
2022/08/17 04:59:02;;;;;;;36.53;32.58;;;18.10;99.90;;;;;;4967918;28;20031;-48
2022/08/17 05:01:31;;;;;;;33.42;29.30;;;18.10;99.90;;;;;;4960226;28;20585;-48
2022/08/17 05:03:59;;;;;;;33.38;29.77;;;18.20;99.90;;;;;;4968679;28;20553;-50
2022/08/17 05:06:26;;;;;;;33.67;30.08;;;18.20;99.90;;;;;;4961393;28;20031;-49
2022/08/17 05:08:53;;;;;;;33.38;29.98;;;18.20;99.90;;;;;;4976679;23;20079;-59
2022/08/17 05:11:19;;;;;;;37.40;33.35;;;18.30;99.90;;;;;;4949825;28;20452;-60
2022/08/17 05:13:44;;;;;;;37.00;32.03;;;18.30;99.90;;;;;;4951908;28;20047;-61
2022/08/17 05:16:11;;;;;;;36.53;31.55;;;18.30;99.90;;;;;;4953570;28;20099;-60
2022/08/17 05:18:37;;;;;;;33.25;28.65;;;18.40;99.90;;;;;;4952691;28;20443;-58
2022/08/17 05:21:04;;;;;;;32.40;28.77;;;18.40;99.90;;;;;;4944090;29;20027;-60
2022/08/17 05:23:29;;;;;;;34.50;30.90;;;18.50;99.90;;;;;;4944999;28;20035;-61
2022/08/17 05:25:55;;;;;;;32.63;29.33;;;18.50;99.90;;;;;;4943978;28;20569;-61
2022/08/17 05:28:22;;;;;;;30.75;27.40;;;18.60;99.90;;;;;;4945185;28;20034;-58
2022/08/17 05:30:48;;;;;;;32.55;29.05;;;18.60;99.90;;;;;;4944561;28;20484;-60
2022/08/17 05:33:23;;;;;;;37.63;33.42;;;18.70;99.90;;;;;;4930579;29;20031;-59
2022/08/17 05:35:50;;;;;;;33.08;29.45;;;18.80;99.90;;;;;;4943203;28;20023;-60
2022/08/17 05:38:18;;;;;;;38.15;34.05;;;18.90;99.90;;;;;;4933483;29;20039;-58
2022/08/17 05:40:45;;;;;;;37.90;32.35;;;19.00;99.90;;;;;;4944175;28;20058;-59
2022/08/17 05:43:14;;;;;;;34.08;30.48;;;19.00;99.90;;;;;;4944370;29;20104;-57
2022/08/17 05:46:13;;;;;;;41.63;35.35;;;19.10;99.90;;;;;;4945383;28;20427;-58
2022/08/17 05:48:46;;;;;;;36.15;31.90;;;19.20;99.90;;;;;;4940101;29;20517;-57
2022/08/17 05:51:22;;;;;;;34.28;29.92;;;19.20;99.90;;;;;;4941473;28;20628;-58
2022/08/17 05:53:57;;;;;;;;;;;19.30;99.90;;;;;;4947721;29;20028;-57
2022/08/17 05:56:41;;;;;;;31.60;28.25;;;19.40;99.90;;;;;;4939501;29;19907;-58
2022/08/17 05:59:36;;;;;;;34.33;30.67;;;19.40;99.90;;;;;;4948130;29;20072;-57
2022/08/17 06:02:16;;;;;;;37.53;31.20;;;19.50;99.90;;;;;;4941301;29;20099;-56
2022/08/17 06:05:00;;;;;;;32.60;29.10;;;19.60;99.90;;;;;;4944672;28;20484;-59
2022/08/17 06:07:48;;;;;;;36.50;30.63;;;19.60;99.90;;;;;;4934740;29;20031;-58
2022/08/17 06:10:14;;;;;;;32.28;29.00;;;19.70;99.90;;;;;;4941562;28;20027;-58
2022/08/17 06:12:52;;;;;;;32.47;29.23;;;19.70;99.90;;;;;;4943268;28;20368;-57
2022/08/17 06:15:26;;;;;;;30.45;27.23;;;19.80;99.90;;;;;;4937693;29;20026;-57
2022/08/17 06:17:57;;;;;;;33.53;29.98;;;19.90;99.90;;;;;;4940137;29;20028;-58
2022/08/17 06:20:26;;;;;;;32.75;29.23;;;20.00;99.90;;;;;;4945423;28;20024;-60
2022/08/17 06:23:01;;;;;;;31.10;27.98;;;20.00;99.90;;;;;;4940989;29;20035;-59
2022/08/17 06:25:41;;;;;;;30.07;25.57;;;20.10;99.90;;;;;;4945874;28;20111;-58
2022/08/17 06:28:13;;;;;;;28.58;25.70;;;20.20;99.90;;;;;;4943203;29;20046;-58
2022/08/17 06:31:14;;;;;;;26.08;23.38;;;20.30;99.90;;;;;;4944607;28;20099;-59
2022/08/17 06:33:43;;;;;;;30.30;27.20;;;20.50;99.90;;;;;;4940208;29;20511;-58
2022/08/17 06:36:28;;;;;;;29.02;25.50;;;20.60;99.90;;;;;;4941675;28;20027;-60
2022/08/17 06:38:53;;;;;;;29.92;25.55;;;20.60;99.90;;;;;;4943357;28;20031;-58
2022/08/17 06:41:37;;;;;;;28.50;24.90;;;20.80;99.90;;;;;;4942487;29;20030;-57
2022/08/17 06:44:17;;;;;;;22.02;19.83;;;20.90;99.90;;;;;;4942195;28;20034;-59
2022/08/17 06:46:47;;;;;;;22.52;20.33;;;21.00;99.90;;;;;;4947590;29;20114;-58
2022/08/17 06:49:34;;;;;;;26.02;21.17;;;21.10;99.90;;;;;;4940787;28;20027;-58
2022/08/17 06:52:22;;;;;;;18.70;16.80;;;21.30;99.90;;;;;;4941739;29;20024;-58
2022/08/17 06:54:55;;;;;;;26.00;23.05;;;21.40;99.90;;;;;;4941927;28;20035;-59
2022/08/17 06:57:27;;;;;;;17.63;15.88;;;21.50;99.90;;;;;;4931064;29;20499;-60
2022/08/17 07:00:12;;;;;;;22.40;19.77;;;21.60;99.90;;;;;;4940869;28;20053;-60
2022/08/17 07:03:05;;;;;;;19.25;17.25;;;21.80;99.90;;;;;;4943380;28;20122;-58
2022/08/17 07:05:44;;;;;;;20.67;18.73;;;21.90;99.90;;;;;;4932491;28;20031;-60
2022/08/17 07:08:17;;;;;;;18.23;16.42;;;22.10;99.90;;;;;;4940630;28;20090;-59
2022/08/17 07:10:49;;;;;;;18.38;16.05;;;22.20;99.90;;;;;;4944939;29;20107;-59
2022/08/17 07:13:28;;;;;;;18.52;16.60;;;22.40;99.90;;;;;;4934984;29;20016;-58
2022/08/17 07:16:03;;;;;;;21.35;18.08;;;22.50;99.90;;;;;;4940667;29;20035;-60
2022/08/17 07:18:31;;;;;;;16.45;14.63;;;22.60;99.90;;;;;;4943519;28;20019;-59
2022/08/17 07:21:06;;;;;;;19.33;17.45;;;22.80;99.90;;;;;;4938966;29;20092;-61
2022/08/17 07:23:46;;;;;;;16.75;14.95;;;22.90;99.90;;;;;;4942551;28;20019;-58
2022/08/17 07:26:12;;;;;;;15.43;13.82;;;23.10;99.90;;;;;;4942847;29;20527;-60
2022/08/17 07:28:39;;;;;;;14.30;13.00;;;23.20;99.90;;;;;;4943636;28;20131;-61
2022/08/17 07:31:05;;;;;;;13.18;11.98;;;23.30;99.90;;;;;;4942578;28;20028;-59
2022/08/17 07:33:35;;;;;;;13.43;11.85;;;23.50;99.90;;;;;;4943164;28;20027;-61
2022/08/17 07:36:01;;;;;;;11.90;10.77;;;23.70;99.90;;;;;;4940762;28;20023;-61
2022/08/17 07:38:29;;;;;;;15.45;10.68;;;23.90;99.90;;;;;;4943016;28;20019;-60
2022/08/17 07:41:01;;;;;;;10.82;9.75;;;24.00;99.90;;;;;;4940108;28;20032;-61
2022/08/17 07:43:39;;;;;;;11.30;10.30;;;24.20;99.90;;;;;;4941468;28;20047;-61
2022/08/17 07:49:05;;;;;;;12.88;11.68;;;24.50;99.90;;;;;;4941012;29;20038;-59
2022/08/17 07:51:36;;;;;;;13.48;12.07;;;24.70;99.90;;;;;;4939481;29;20448;-59
2022/08/17 07:54:21;;;;;;;12.27;11.07;;;24.70;99.90;;;;;;4945309;29;20087;-58
2022/08/17 07:56:48;;;;;;;12.98;10.88;;;24.90;99.90;;;;;;4936477;29;20020;-60
2022/08/17 07:59:23;;;;;;;12.77;10.52;;;25.10;99.90;;;;;;4933338;29;20047;-59
2022/08/17 08:02:04;;;;;;;10.32;9.43;;;25.30;99.90;;;;;;4936271;29;20059;-60
2022/08/17 08:04:41;;;;;;;10.52;9.60;;;25.40;99.90;;;;;;4945180;28;20621;-60
2022/08/17 08:07:16;;;;;;;10.10;9.30;;;25.60;99.90;;;;;;4943151;28;20036;-59
2022/08/17 08:09:45;;;;;;;8.77;8.07;;;25.60;99.90;;;;;;4939953;28;20123;-61
2022/08/17 08:12:36;;;;;;;9.73;8.85;;;25.70;99.90;;;;;;4942081;29;20042;-59
2022/08/17 08:15:18;;;;;;;9.48;8.65;;;25.80;99.90;;;;;;4934720;29;20043;-61
2022/08/17 08:18:01;;;;;;;10.25;9.20;;;25.90;99.90;;;;;;4935542;29;20024;-61
2022/08/17 08:20:45;;;;;;;13.20;9.13;;;26.00;99.90;;;;;;4935367;29;20074;-62
2022/08/17 08:23:43;;;;;;;8.23;7.50;;;26.00;99.90;;;;;;4940587;29;20578;-62
2022/08/17 08:26:37;;;;;;;9.80;8.90;;;26.00;99.90;;;;;;4941287;29;20055;-60
2022/08/17 08:29:02;;;;;;;9.73;8.63;;;26.10;99.90;;;;;;4941663;28;20103;-60
2022/08/17 08:31:50;;;;;;;8.13;7.20;;;26.20;99.90;;;;;;4942734;28;20035;-58
2022/08/17 08:34:17;;;;;;;8.57;7.75;;;26.30;99.90;;;;;;4938793;28;20028;-60
2022/08/17 08:36:51;;;;;;;8.00;7.30;;;26.40;99.90;;;;;;4948267;29;20499;-61
2022/08/17 08:39:23;;;;;;;8.90;8.20;;;26.60;99.90;;;;;;4940210;29;20122;-59
2022/08/17 08:42:12;;;;;;;8.60;7.53;;;26.70;99.90;;;;;;4949374;29;20042;-60
2022/08/17 08:44:57;;;;;;;8.50;7.80;;;26.70;99.90;;;;;;4942811;29;20036;-60
2022/08/17 08:47:49;;;;;;;10.05;7.82;;;26.80;99.90;;;;;;4937003;29;20103;-61
2022/08/17 08:50:35;;;;;;;7.93;7.22;;;26.90;99.90;;;;;;4940722;29;20054;-60
2022/08/17 08:53:20;;;;;;;;;;;27.00;99.90;;;;;;4943799;28;20020;-60
2022/08/17 08:56:02;;;;;;;8.32;7.05;;;27.20;99.70;;;;;;4946041;28;20018;-58
2022/08/17 08:58:46;;;;;;;7.70;6.95;;;27.40;98.50;;;;;;4940240;29;20455;-59
2022/08/17 09:01:23;;;;;;;6.65;6.10;;;27.40;98.10;;;;;;4942513;28;20059;-61
2022/08/17 09:04:29;;;;;;;7.10;6.45;;;27.60;98.30;;;;;;4949632;29;20035;-59
2022/08/17 09:07:10;;;;;;;7.10;6.50;;;27.80;98.20;;;;;;4942667;29;20043;-59
2022/08/17 09:10:02;;;;;;;9.00;5.43;;;28.00;97.40;;;;;;4939323;28;20318;-59
2022/08/17 09:13:05;;;;;;;7.50;5.30;;;28.20;95.20;;;;;;4936694;29;20119;-59
2022/08/17 09:15:43;;;;;;;5.63;5.00;;;28.30;95.00;;;;;;4936929;29;20520;-60
2022/08/17 09:18:25;;;;;;;5.95;5.45;;;28.40;95.00;;;;;;4945058;29;20069;-61
2022/08/17 09:21:02;;;;;;;6.55;5.47;;;28.60;95.30;;;;;;4942937;28;20449;-61
2022/08/17 09:23:41;;;;;;;6.72;5.57;;;28.70;94.20;;;;;;4945271;28;20121;-57
2022/08/17 09:26:12;;;;;;;7.18;6.45;;;28.60;94.00;;;;;;4942317;29;20543;-58
2022/08/17 09:28:43;;;;;;;6.20;5.60;;;28.50;94.20;;;;;;4945251;28;20071;-60
2022/08/17 09:31:15;;;;;;;7.55;6.10;;;28.30;94.20;;;;;;4943954;29;20164;-62
2022/08/17 09:33:47;;;;;;;6.00;5.50;;;28.40;94.20;;;;;;4943974;29;20037;-60
2022/08/17 09:36:27;;;;;;;7.40;5.63;;;28.30;94.50;;;;;;4942813;28;20023;-61
2022/08/17 09:39:13;;;;;;;6.75;5.57;;;28.40;94.10;;;;;;4944799;28;20211;-60
2022/08/17 09:41:49;;;;;;;6.10;5.60;;;28.40;94.10;;;;;;4942611;29;20019;-59
2022/08/17 09:44:44;;;;;;;6.45;5.47;;;28.50;94.00;;;;;;4937997;29;20020;-61
2022/08/17 09:47:45;;;;;;;9.88;5.55;;;28.50;93.90;;;;;;4948448;29;20028;-60
2022/08/17 09:50:29;;;;;;;5.82;5.32;;;28.60;93.80;;;;;;4944233;29;20097;-61
2022/08/17 09:52:57;;;;;;;12.82;6.00;;;28.70;94.80;;;;;;4942668;28;20047;-59
2022/08/17 09:55:35;;;;;;;12.38;7.88;;;28.70;93.80;;;;;;4944945;28;20031;-59
2022/08/17 09:58:10;;;;;;;18.98;7.85;;;28.60;93.40;;;;;;4943469;28;20027;-60
2022/08/17 10:00:42;;;;;;;6.50;5.70;;;28.50;93.50;;;;;;4943557;28;20129;-59
2022/08/17 10:03:42;;;;;;;6.43;5.80;;;28.50;93.70;;;;;;4943816;28;20023;-60
2022/08/17 10:06:16;;;;;;;6.10;5.60;;;28.60;93.70;;;;;;4942079;28;20031;-60
2022/08/17 10:09:10;;;;;;;10.70;6.35;;;28.60;93.70;;;;;;4937017;29;20472;-56
2022/08/17 10:12:18;;;;;;;8.48;6.20;;;28.60;93.50;;;;;;4938178;29;20027;-59
2022/08/17 10:14:53;;;;;;;7.93;7.20;;;28.60;93.50;;;;;;4934728;29;20364;-59
2022/08/17 10:17:41;;;;;;;9.17;5.97;;;28.50;93.20;;;;;;4939590;29;20484;-58
2022/08/17 10:20:15;;;;;;;6.47;5.97;;;28.50;93.60;;;;;;4946879;29;20267;-60
2022/08/17 10:28:28;;;;;;;6.65;6.05;;;28.60;93.90;;;;;;4931329;29;20039;-59
2022/08/17 10:30:56;;;;;;;6.93;5.97;;;28.80;93.50;;;;;;4943342;28;20395;-59
2022/08/17 10:33:34;;;;;;;6.38;5.88;;;28.70;93.30;;;;;;4944068;28;20082;-59
2022/08/17 10:36:13;;;;;;;6.10;5.65;;;28.80;93.70;;;;;;4949639;28;20038;-58
2022/08/17 10:38:55;;;;;;;6.68;6.07;;;28.80;93.50;;;;;;4944059;28;20035;-58
2022/08/17 10:41:39;;;;;;;10.82;6.35;;;28.80;93.30;;;;;;4936167;29;20034;-59
2022/08/17 10:44:36;;;;;;;9.45;5.95;;;28.80;93.20;;;;;;4941721;28;20491;-60
2022/08/17 10:47:09;;;;;;;6.97;6.32;;;28.90;93.70;;;;;;4947873;29;20035;-58
2022/08/17 10:49:48;;;;;;;6.97;6.38;;;28.90;93.10;;;;;;4940498;29;20054;-60
2022/08/17 10:52:24;;;;;;;6.15;5.65;;;28.80;93.20;;;;;;4944003;28;20019;-59
2022/08/17 10:54:50;;;;;;;6.82;6.15;;;28.80;93.50;;;;;;4941846;28;20480;-60
2022/08/17 10:57:36;;;;;;;6.78;6.18;;;28.80;93.20;;;;;;4943816;28;20030;-59
2022/08/17 11:00:08;;;;;;;6.47;5.78;;;28.80;93.00;;;;;;4942289;28;20019;-60
2022/08/17 11:02:40;;;;;;;7.97;6.18;;;28.80;93.10;;;;;;4943763;28;20178;-59
2022/08/17 11:05:17;;;;;;;6.25;5.75;;;28.90;92.90;;;;;;4942766;28;20020;-59
2022/08/17 11:08:07;;;;;;;6.20;5.60;;;28.90;92.10;;;;;;4944057;28;20099;-60
2022/08/17 11:10:38;;;;;;;6.13;5.60;;;28.90;92.20;;;;;;4938400;29;20069;-61
2022/08/17 11:13:09;;;;;;;5.80;5.40;;;28.90;91.60;;;;;;4941077;28;20035;-60
2022/08/17 11:15:53;;;;;;;5.63;5.13;;;28.90;91.80;;;;;;4936941;29;20503;-59
2022/08/17 11:18:27;;;;;;;6.72;6.03;;;29.00;92.10;;;;;;4929176;29;20027;-59
2022/08/17 11:21:11;;;;;;;6.57;6.07;;;29.00;91.20;;;;;;4940912;28;20059;-61
2022/08/17 11:23:47;;;;;;;6.43;5.93;;;29.00;91.50;;;;;;4943190;28;20026;-59
2022/08/17 11:26:28;;;;;;;9.98;7.22;;;29.00;92.20;;;;;;4943084;29;20387;-59
2022/08/17 11:29:15;;;;;;;11.45;7.10;;;29.00;92.20;;;;;;4942494;29;20107;-60
2022/08/17 11:31:56;;;;;;;6.78;6.28;;;29.00;92.40;;;;;;4943284;28;20106;-60
2022/08/17 11:34:25;;;;;;;7.20;6.60;;;29.00;92.80;;;;;;4938730;29;20028;-60
2022/08/17 11:37:26;;;;;;;6.65;6.15;;;29.10;92.60;;;;;;4945933;29;20034;-59
2022/08/17 11:40:04;;;;;;;5.80;5.38;;;29.10;92.30;;;;;;4937484;29;20028;-60
2022/08/17 11:42:45;;;;;;;8.70;6.25;;;29.10;92.50;;;;;;4943849;28;20027;-61
2022/08/17 11:45:44;;;;;;;8.30;5.82;;;29.10;92.20;;;;;;4942723;29;20546;-62
2022/08/17 11:51:35;;;;;;;5.90;5.50;;;29.30;91.10;;;;;;4940840;29;20106;-60
2022/08/17 11:54:29;;;;;;;5.88;5.22;;;29.40;91.00;;;;;;4945546;29;20024;-60
2022/08/17 11:56:57;;;;;;;5.97;5.35;;;29.30;89.90;;;;;;4938514;29;20032;-58
2022/08/17 11:59:32;;;;;;;6.43;5.80;;;29.40;90.10;;;;;;4944755;28;20030;-60
2022/08/17 12:02:00;;;;;;;6.07;5.57;;;29.40;90.20;;;;;;4940408;29;20468;-60
2022/08/17 12:04:28;;;;;;;5.57;5.07;;;29.40;89.10;;;;;;4943752;28;20027;-59
2022/08/17 12:07:05;;;;;;;5.70;5.20;;;29.50;90.00;;;;;;4936257;29;20031;-61
2022/08/17 12:09:33;;;;;;;5.75;5.25;;;29.60;89.30;;;;;;4945034;28;20058;-60
2022/08/17 12:12:08;;;;;;;7.05;5.10;;;29.60;89.10;;;;;;4942750;29;20510;-60
2022/08/17 12:14:35;;;;;;;5.30;4.90;;;29.70;88.50;;;;;;4943722;28;20431;-60
2022/08/17 12:17:08;;;;;;;6.30;5.82;;;29.70;88.20;;;;;;4944805;28;20511;-61
2022/08/17 12:19:36;;;;;;;18.88;7.53;;;29.70;89.90;;;;;;4947078;29;20026;-60
2022/08/17 12:22:30;;;;;;;7.57;6.47;;;29.70;90.40;;;;;;4944199;28;20125;-61
2022/08/17 12:24:59;;;;;;;7.10;5.90;;;29.70;90.40;;;;;;4947584;29;20573;-61
2022/08/17 12:27:34;;;;;;;10.15;6.60;;;29.80;90.50;;;;;;4943036;29;20039;-59
2022/08/17 12:30:08;;;;;;;19.65;7.85;;;29.70;90.10;;;;;;4950109;29;20027;-57
2022/08/17 12:32:35;;;;;;;7.50;5.95;;;29.70;90.30;;;;;;4942887;29;20027;-59
2022/08/17 12:35:03;;;;;;;6.25;5.22;;;29.70;90.10;;;;;;4944601;29;20046;-58
2022/08/17 12:37:31;;;;;;;6.10;5.50;;;29.70;89.80;;;;;;4946707;28;20032;-58
2022/08/17 12:39:59;;;;;;;6.10;5.50;;;29.70;89.80;;;;;;4943902;29;20027;-58
2022/08/17 12:42:31;;;;;;;5.93;5.43;;;29.60;89.10;;;;;;4947749;28;20027;-60
2022/08/17 12:44:58;;;;;;;8.45;6.32;;;29.70;89.40;;;;;;4944262;29;20112;-60
2022/08/17 12:47:24;;;;;;;5.95;5.05;;;29.70;88.70;;;;;;4948996;28;20012;-60
2022/08/17 12:50:02;;;;;;;6.20;5.15;;;29.70;89.40;;;;;;4942598;29;20028;-60
2022/08/17 12:52:31;;;;;;;5.28;4.78;;;29.80;89.90;;;;;;4945750;28;20150;-60
2022/08/17 12:55:05;;;;;;;5.10;4.60;;;29.80;89.60;;;;;;4943817;28;20087;-61
2022/08/17 12:57:37;;;;;;;5.40;4.90;;;29.90;89.50;;;;;;4945934;28;20034;-59
2022/08/17 13:00:11;;;;;;;6.00;5.32;;;29.80;88.00;;;;;;4944095;28;20027;-59
2022/08/17 13:02:51;;;;;;;5.30;4.80;;;29.80;85.60;;;;;;4945595;28;20041;-59
2022/08/17 13:05:23;;;;;;;5.10;4.70;;;29.80;85.70;;;;;;4935537;29;20023;-59
2022/08/17 13:07:51;;;;;;;5.25;4.78;;;29.80;85.20;;;;;;4946090;28;20031;-59
2022/08/17 13:10:20;;;;;;;5.25;4.80;;;29.70;85.60;;;;;;4936328;29;20032;-60
2022/08/17 13:12:49;;;;;;;5.32;4.93;;;29.60;85.80;;;;;;4945826;28;20103;-60
2022/08/17 13:15:29;;;;;;;5.28;4.88;;;29.60;86.40;;;;;;4939681;29;20027;-59
2022/08/17 13:18:34;;;;;;;5.25;4.80;;;29.50;86.70;;;;;;4944992;29;20156;-60
2022/08/17 13:21:00;;;;;;;5.07;4.60;;;29.50;86.90;;;;;;4934257;28;20047;-60
2022/08/17 13:23:28;;;;;;;6.95;5.05;;;29.50;86.70;;;;;;4939041;28;20039;-60
2022/08/17 13:26:05;;;;;;;4.95;4.60;;;29.50;86.90;;;;;;4942531;29;20047;-60
2022/08/17 13:28:32;;;;;;;5.47;4.97;;;29.50;86.60;;;;;;4945188;28;20109;-59
2022/08/17 13:31:22;;;;;;;5.55;4.90;;;29.40;86.30;;;;;;4944368;28;20058;-59
2022/08/17 13:33:49;;;;;;;4.97;4.57;;;29.30;85.90;;;;;;4945413;28;20023;-59